sensor_id;sensor_type;location;lat;lon;timestamp;temperature;humidity
52245;DHT22;55759;51.586;-1.758;2023-09-18T00:01:17;17.80;91.20
52245;DHT22;55759;51.586;-1.758;2023-09-18T00:03:45;17.80;91.80
52245;DHT22;55759;51.586;-1.758;2023-09-18T00:06:10;17.70;91.70
52245;DHT22;55759;51.586;-1.758;2023-09-18T00:08:44;17.50;91.70
52245;DHT22;55759;51.586;-1.758;2023-09-18T00:11:17;17.40;92.00
52245;DHT22;55759;51.586;-1.758;2023-09-18T00:13:45;17.30;92.10
52245;DHT22;55759;51.586;-1.758;2023-09-18T00:16:11;17.20;92.30
52245;DHT22;55759;51.586;-1.758;2023-09-18T00:18:38;17.10;92.40
52245;DHT22;55759;51.586;-1.758;2023-09-18T00:21:03;17.00;92.50
52245;DHT22;55759;51.586;-1.758;2023-09-18T00:23:31;16.90;92.90
52245;DHT22;55759;51.586;-1.758;2023-09-18T00:25:56;16.90;93.20
52245;DHT22;55759;51.586;-1.758;2023-09-18T00:28:27;16.90;93.30
52245;DHT22;55759;51.586;-1.758;2023-09-18T00:30:53;16.80;93.40
52245;DHT22;55759;51.586;-1.758;2023-09-18T00:33:19;16.80;93.60
52245;DHT22;55759;51.586;-1.758;2023-09-18T00:35:47;16.80;93.70
52245;DHT22;55759;51.586;-1.758;2023-09-18T00:38:18;16.80;93.70
52245;DHT22;55759;51.586;-1.758;2023-09-18T00:40:46;16.70;93.70
52245;DHT22;55759;51.586;-1.758;2023-09-18T00:43:20;16.60;93.60
52245;DHT22;55759;51.586;-1.758;2023-09-18T00:45:54;16.60;93.70
52245;DHT22;55759;51.586;-1.758;2023-09-18T00:51:25;16.20;93.50
52245;DHT22;55759;51.586;-1.758;2023-09-18T00:53:59;16.00;93.70
52245;DHT22;55759;51.586;-1.758;2023-09-18T00:56:27;16.00;94.00
52245;DHT22;55759;51.586;-1.758;2023-09-18T00:58:55;15.90;94.10
52245;DHT22;55759;51.586;-1.758;2023-09-18T01:01:21;15.90;94.30
52245;DHT22;55759;51.586;-1.758;2023-09-18T01:03:50;15.80;94.30
52245;DHT22;55759;51.586;-1.758;2023-09-18T01:06:18;15.80;94.50
52245;DHT22;55759;51.586;-1.758;2023-09-18T01:08:56;15.80;94.60
52245;DHT22;55759;51.586;-1.758;2023-09-18T01:14:50;15.90;94.80
52245;DHT22;55759;51.586;-1.758;2023-09-18T01:17:24;16.00;94.80
52245;DHT22;55759;51.586;-1.758;2023-09-18T01:20:02;16.00;94.80
52245;DHT22;55759;51.586;-1.758;2023-09-18T01:22:41;16.00;94.80
52245;DHT22;55759;51.586;-1.758;2023-09-18T01:25:20;15.90;94.80
52245;DHT22;55759;51.586;-1.758;2023-09-18T01:31:02;15.90;94.90
52245;DHT22;55759;51.586;-1.758;2023-09-18T01:55:22;16.10;95.10
52245;DHT22;55759;51.586;-1.758;2023-09-18T02:20:00;16.10;95.10
52245;DHT22;55759;51.586;-1.758;2023-09-18T02:25:46;15.90;95.00
52245;DHT22;55759;51.586;-1.758;2023-09-18T02:28:51;16.00;95.00
52245;DHT22;55759;51.586;-1.758;2023-09-18T02:31:17;15.90;94.90
52245;DHT22;55759;51.586;-1.758;2023-09-18T02:33:42;15.80;95.00
52245;DHT22;55759;51.586;-1.758;2023-09-18T02:36:12;15.90;95.00
52245;DHT22;55759;51.586;-1.758;2023-09-18T02:39:10;15.80;95.00
52245;DHT22;55759;51.586;-1.758;2023-09-18T08:17:53;16.90;95.90
52245;DHT22;55759;51.586;-1.758;2023-09-18T09:13:43;17.70;93.80
52245;DHT22;55759;51.586;-1.758;2023-09-18T09:16:29;17.50;93.00
52245;DHT22;55759;51.586;-1.758;2023-09-18T09:18:55;17.40;92.90
52245;DHT22;55759;51.586;-1.758;2023-09-18T09:21:28;17.30;93.00
52245;DHT22;55759;51.586;-1.758;2023-09-18T09:24:23;17.30;93.30
52245;DHT22;55759;51.586;-1.758;2023-09-18T09:27:00;17.20;93.40
52245;DHT22;55759;51.586;-1.758;2023-09-18T09:29:28;17.30;93.60
52245;DHT22;55759;51.586;-1.758;2023-09-18T09:32:17;17.40;93.80
52245;DHT22;55759;51.586;-1.758;2023-09-18T09:34:44;17.50;93.80
52245;DHT22;55759;51.586;-1.758;2023-09-18T09:37:10;17.60;93.80
52245;DHT22;55759;51.586;-1.758;2023-09-18T09:39:53;17.60;93.80
52245;DHT22;55759;51.586;-1.758;2023-09-18T09:42:45;17.80;93.80
52245;DHT22;55759;51.586;-1.758;2023-09-18T09:45:11;17.90;93.50
52245;DHT22;55759;51.586;-1.758;2023-09-18T09:47:42;17.90;92.80
52245;DHT22;55759;51.586;-1.758;2023-09-18T09:50:10;17.90;92.10
52245;DHT22;55759;51.586;-1.758;2023-09-18T09:52:36;17.80;91.60
52245;DHT22;55759;51.586;-1.758;2023-09-18T09:55:17;17.60;90.50
52245;DHT22;55759;51.586;-1.758;2023-09-18T09:57:47;17.40;91.00
52245;DHT22;55759;51.586;-1.758;2023-09-18T10:00:13;17.40;91.70
52245;DHT22;55759;51.586;-1.758;2023-09-18T10:03:04;17.40;91.50
52245;DHT22;55759;51.586;-1.758;2023-09-18T10:05:35;17.50;92.00
52245;DHT22;55759;51.586;-1.758;2023-09-18T10:08:07;17.60;92.20
52245;DHT22;55759;51.586;-1.758;2023-09-18T10:10:47;17.50;91.70
52245;DHT22;55759;51.586;-1.758;2023-09-18T10:13:32;17.60;92.70
52245;DHT22;55759;51.586;-1.758;2023-09-18T10:19:39;18.10;92.20
52245;DHT22;55759;51.586;-1.758;2023-09-18T10:25:11;17.80;91.20
52245;DHT22;55759;51.586;-1.758;2023-09-18T10:27:43;17.80;91.30
52245;DHT22;55759;51.586;-1.758;2023-09-18T10:30:10;17.80;91.10
52245;DHT22;55759;51.586;-1.758;2023-09-18T10:32:40;17.80;90.70
52245;DHT22;55759;51.586;-1.758;2023-09-18T10:35:13;18.10;91.00
52245;DHT22;55759;51.586;-1.758;2023-09-18T10:37:39;18.10;89.90
52245;DHT22;55759;51.586;-1.758;2023-09-18T10:40:09;18.00;89.00
52245;DHT22;55759;51.586;-1.758;2023-09-18T10:42:37;17.80;89.70
52245;DHT22;55759;51.586;-1.758;2023-09-18T10:45:09;17.60;89.70
52245;DHT22;55759;51.586;-1.758;2023-09-18T10:50:55;17.90;90.10
52245;DHT22;55759;51.586;-1.758;2023-09-18T10:53:21;18.30;89.30
52245;DHT22;55759;51.586;-1.758;2023-09-18T10:55:50;18.80;89.10
52245;DHT22;55759;51.586;-1.758;2023-09-18T10:58:22;19.20;87.30
52245;DHT22;55759;51.586;-1.758;2023-09-18T11:00:49;19.70;87.30
52245;DHT22;55759;51.586;-1.758;2023-09-18T11:03:17;20.40;85.20
52245;DHT22;55759;51.586;-1.758;2023-09-18T11:05:48;21.10;83.80
52245;DHT22;55759;51.586;-1.758;2023-09-18T11:08:29;21.20;80.20
52245;DHT22;55759;51.586;-1.758;2023-09-18T11:13:48;21.00;78.70
52245;DHT22;55759;51.586;-1.758;2023-09-18T11:18:48;20.80;78.20
52245;DHT22;55759;51.586;-1.758;2023-09-18T11:21:18;20.90;77.00
52245;DHT22;55759;51.586;-1.758;2023-09-18T11:23:44;20.60;76.10
52245;DHT22;55759;51.586;-1.758;2023-09-18T11:26:10;20.50;76.50
52245;DHT22;55759;51.586;-1.758;2023-09-18T11:28:45;20.40;77.90
52245;DHT22;55759;51.586;-1.758;2023-09-18T11:31:34;20.10;77.30
52245;DHT22;55759;51.586;-1.758;2023-09-18T11:34:10;19.90;77.70
52245;DHT22;55759;51.586;-1.758;2023-09-18T11:36:43;19.50;78.90
52245;DHT22;55759;51.586;-1.758;2023-09-18T11:39:38;19.30;80.20
52245;DHT22;55759;51.586;-1.758;2023-09-18T11:42:27;19.40;80.10
52245;DHT22;55759;51.586;-1.758;2023-09-18T11:44:56;19.60;79.10
52245;DHT22;55759;51.586;-1.758;2023-09-18T11:47:31;19.90;78.40
52245;DHT22;55759;51.586;-1.758;2023-09-18T11:49:57;20.40;76.00
52245;DHT22;55759;51.586;-1.758;2023-09-18T11:55:40;20.00;75.80
52245;DHT22;55759;51.586;-1.758;2023-09-18T11:58:29;19.80;76.40
52245;DHT22;55759;51.586;-1.758;2023-09-18T12:01:14;19.80;76.30
52245;DHT22;55759;51.586;-1.758;2023-09-18T12:03:40;20.10;76.10
52245;DHT22;55759;51.586;-1.758;2023-09-18T12:06:06;20.20;76.20
52245;DHT22;55759;51.586;-1.758;2023-09-18T12:08:43;20.40;75.10
52245;DHT22;55759;51.586;-1.758;2023-09-18T12:11:15;20.30;74.60
52245;DHT22;55759;51.586;-1.758;2023-09-18T12:13:58;20.10;75.40
52245;DHT22;55759;51.586;-1.758;2023-09-18T12:16:39;19.50;77.20
52245;DHT22;55759;51.586;-1.758;2023-09-18T12:19:08;18.70;79.20
52245;DHT22;55759;51.586;-1.758;2023-09-18T12:21:41;18.10;81.50
52245;DHT22;55759;51.586;-1.758;2023-09-18T12:52:34;21.10;77.00
52245;DHT22;55759;51.586;-1.758;2023-09-18T12:58:37;25.20;60.20
52245;DHT22;55759;51.586;-1.758;2023-09-18T13:07:24;25.40;56.30
52245;DHT22;55759;51.586;-1.758;2023-09-18T13:10:05;27.30;52.80
52245;DHT22;55759;51.586;-1.758;2023-09-18T13:16:08;29.70;47.10
52245;DHT22;55759;51.586;-1.758;2023-09-18T13:18:34;31.00;43.40
52245;DHT22;55759;51.586;-1.758;2023-09-18T13:21:09;31.60;41.00
52245;DHT22;55759;51.586;-1.758;2023-09-18T13:23:46;30.30;42.50
52245;DHT22;55759;51.586;-1.758;2023-09-18T13:26:15;28.10;44.80
52245;DHT22;55759;51.586;-1.758;2023-09-18T13:31:51;30.80;43.10
52245;DHT22;55759;51.586;-1.758;2023-09-18T13:34:19;31.20;35.70
52245;DHT22;55759;51.586;-1.758;2023-09-18T13:36:49;30.80;36.90
52245;DHT22;55759;51.586;-1.758;2023-09-18T13:39:15;30.10;37.30
52245;DHT22;55759;51.586;-1.758;2023-09-18T13:41:52;28.10;41.50
52245;DHT22;55759;51.586;-1.758;2023-09-18T13:44:26;26.80;43.60
52245;DHT22;55759;51.586;-1.758;2023-09-18T13:46:51;25.70;45.80
52245;DHT22;55759;51.586;-1.758;2023-09-18T13:49:20;24.90;48.30
52245;DHT22;55759;51.586;-1.758;2023-09-18T13:51:56;24.40;49.90
52245;DHT22;55759;51.586;-1.758;2023-09-18T13:55:01;25.00;50.80
52245;DHT22;55759;51.586;-1.758;2023-09-18T13:57:40;25.60;47.40
52245;DHT22;55759;51.586;-1.758;2023-09-18T14:00:33;26.20;46.60
52245;DHT22;55759;51.586;-1.758;2023-09-18T14:02:58;27.90;43.60
52245;DHT22;55759;51.586;-1.758;2023-09-18T14:05:26;28.10;42.90
52245;DHT22;55759;51.586;-1.758;2023-09-18T14:08:03;27.70;43.00
52245;DHT22;55759;51.586;-1.758;2023-09-18T14:10:48;26.20;46.30
52245;DHT22;55759;51.586;-1.758;2023-09-18T14:13:21;24.60;49.90
52245;DHT22;55759;51.586;-1.758;2023-09-18T14:15:52;23.40;53.60
52245;DHT22;55759;51.586;-1.758;2023-09-18T14:18:25;22.60;56.00
52245;DHT22;55759;51.586;-1.758;2023-09-18T14:20:58;22.40;57.40
52245;DHT22;55759;51.586;-1.758;2023-09-18T14:23:29;24.50;55.20
52245;DHT22;55759;51.586;-1.758;2023-09-18T14:26:14;26.70;47.90
52245;DHT22;55759;51.586;-1.758;2023-09-18T14:28:40;28.70;43.80
52245;DHT22;55759;51.586;-1.758;2023-09-18T14:31:06;30.10;42.60
52245;DHT22;55759;51.586;-1.758;2023-09-18T14:33:31;31.20;38.80
52245;DHT22;55759;51.586;-1.758;2023-09-18T14:36:01;32.00;37.10
52245;DHT22;55759;51.586;-1.758;2023-09-18T14:38:27;32.00;33.90
52245;DHT22;55759;51.586;-1.758;2023-09-18T14:40:52;31.10;35.10
52245;DHT22;55759;51.586;-1.758;2023-09-18T14:43:18;31.20;35.50
52245;DHT22;55759;51.586;-1.758;2023-09-18T14:46:02;31.50;31.90
52245;DHT22;55759;51.586;-1.758;2023-09-18T14:48:29;31.50;34.90
52245;DHT22;55759;51.586;-1.758;2023-09-18T14:54:35;32.00;34.00
52245;DHT22;55759;51.586;-1.758;2023-09-18T14:57:05;32.10;32.20
52245;DHT22;55759;51.586;-1.758;2023-09-18T14:59:31;30.10;32.60
52245;DHT22;55759;51.586;-1.758;2023-09-18T15:05:14;26.20;41.30
52245;DHT22;55759;51.586;-1.758;2023-09-18T15:07:42;24.40;43.50
52245;DHT22;55759;51.586;-1.758;2023-09-18T15:10:11;23.40;46.60
52245;DHT22;55759;51.586;-1.758;2023-09-18T15:12:42;22.80;46.90
52245;DHT22;55759;51.586;-1.758;2023-09-18T15:15:08;22.10;47.90
52245;DHT22;55759;51.586;-1.758;2023-09-18T15:17:40;21.60;50.40
52245;DHT22;55759;51.586;-1.758;2023-09-18T15:20:08;21.10;52.00
52245;DHT22;55759;51.586;-1.758;2023-09-18T15:22:39;20.70;57.00
52245;DHT22;55759;51.586;-1.758;2023-09-18T15:25:10;20.50;55.60
52245;DHT22;55759;51.586;-1.758;2023-09-18T15:27:48;20.50;53.50
52245;DHT22;55759;51.586;-1.758;2023-09-18T15:30:21;20.40;53.80
52245;DHT22;55759;51.586;-1.758;2023-09-18T15:32:48;20.10;54.30
52245;DHT22;55759;51.586;-1.758;2023-09-18T15:35:21;19.80;54.80
52245;DHT22;55759;51.586;-1.758;2023-09-18T15:37:48;19.60;55.10
52245;DHT22;55759;51.586;-1.758;2023-09-18T15:40:36;19.50;57.20
52245;DHT22;55759;51.586;-1.758;2023-09-18T15:43:07;19.20;56.40
52245;DHT22;55759;51.586;-1.758;2023-09-18T15:45:36;19.10;56.50
52245;DHT22;55759;51.586;-1.758;2023-09-18T15:48:10;19.20;56.80
52245;DHT22;55759;51.586;-1.758;2023-09-18T15:50:42;19.50;55.80
52245;DHT22;55759;51.586;-1.758;2023-09-18T15:56:06;20.00;54.60
52245;DHT22;55759;51.586;-1.758;2023-09-18T15:58:32;19.90;54.70
52245;DHT22;55759;51.586;-1.758;2023-09-18T16:00:58;19.50;53.10
52245;DHT22;55759;51.586;-1.758;2023-09-18T16:03:26;19.20;54.20
52245;DHT22;55759;51.586;-1.758;2023-09-18T16:05:52;19.10;54.60
52245;DHT22;55759;51.586;-1.758;2023-09-18T16:08:20;19.10;54.90
52245;DHT22;55759;51.586;-1.758;2023-09-18T16:10:46;19.10;54.70
52245;DHT22;55759;51.586;-1.758;2023-09-18T16:13:17;19.10;53.10
52245;DHT22;55759;51.586;-1.758;2023-09-18T16:15:48;18.80;54.20
52245;DHT22;55759;51.586;-1.758;2023-09-18T16:18:14;18.60;54.60
52245;DHT22;55759;51.586;-1.758;2023-09-18T16:20:39;18.40;54.90
52245;DHT22;55759;51.586;-1.758;2023-09-18T16:23:08;18.10;55.90
52245;DHT22;55759;51.586;-1.758;2023-09-18T16:25:37;17.90;55.90
52245;DHT22;55759;51.586;-1.758;2023-09-18T16:28:05;17.80;57.60
52245;DHT22;55759;51.586;-1.758;2023-09-18T16:30:31;17.70;56.00
52245;DHT22;55759;51.586;-1.758;2023-09-18T16:32:59;17.60;56.20
52245;DHT22;55759;51.586;-1.758;2023-09-18T16:35:28;17.40;57.00
52245;DHT22;55759;51.586;-1.758;2023-09-18T16:37:56;17.20;57.40
52245;DHT22;55759;51.586;-1.758;2023-09-18T16:40:30;17.10;58.40
52245;DHT22;55759;51.586;-1.758;2023-09-18T16:43:03;17.30;59.40
52245;DHT22;55759;51.586;-1.758;2023-09-18T16:45:29;17.40;58.50
52245;DHT22;55759;51.586;-1.758;2023-09-18T16:47:55;17.70;57.90
52245;DHT22;55759;51.586;-1.758;2023-09-18T16:50:26;18.20;57.90
52245;DHT22;55759;51.586;-1.758;2023-09-18T16:52:52;18.70;55.10
52245;DHT22;55759;51.586;-1.758;2023-09-18T16:55:17;18.80;54.80
52245;DHT22;55759;51.586;-1.758;2023-09-18T16:57:43;18.80;55.40
52245;DHT22;55759;51.586;-1.758;2023-09-18T17:00:12;18.70;55.40
52245;DHT22;55759;51.586;-1.758;2023-09-18T17:02:38;18.70;55.30
52245;DHT22;55759;51.586;-1.758;2023-09-18T17:08:25;18.40;56.10
52245;DHT22;55759;51.586;-1.758;2023-09-18T17:10:54;18.00;57.30
52245;DHT22;55759;51.586;-1.758;2023-09-18T17:13:29;17.60;58.60
52245;DHT22;55759;51.586;-1.758;2023-09-18T17:16:00;17.40;58.60
52245;DHT22;55759;51.586;-1.758;2023-09-18T17:18:25;17.20;59.30
52245;DHT22;55759;51.586;-1.758;2023-09-18T17:20:54;17.00;59.20
52245;DHT22;55759;51.586;-1.758;2023-09-18T17:23:37;16.90;60.10
52245;DHT22;55759;51.586;-1.758;2023-09-18T17:26:26;16.70;61.10
52245;DHT22;55759;51.586;-1.758;2023-09-18T17:28:53;16.60;61.10
52245;DHT22;55759;51.586;-1.758;2023-09-18T17:31:18;16.40;62.10
52245;DHT22;55759;51.586;-1.758;2023-09-18T17:33:45;16.30;61.20
52245;DHT22;55759;51.586;-1.758;2023-09-18T17:36:16;16.20;61.00
52245;DHT22;55759;51.586;-1.758;2023-09-18T17:38:47;16.10;61.60
52245;DHT22;55759;51.586;-1.758;2023-09-18T17:44:07;16.10;61.80
52245;DHT22;55759;51.586;-1.758;2023-09-18T17:46:35;15.90;64.20
52245;DHT22;55759;51.586;-1.758;2023-09-18T17:49:03;15.70;63.20
52245;DHT22;55759;51.586;-1.758;2023-09-18T17:51:39;15.60;63.20
52245;DHT22;55759;51.586;-1.758;2023-09-18T17:54:04;15.50;62.50
52245;DHT22;55759;51.586;-1.758;2023-09-18T17:56:35;15.30;63.80
52245;DHT22;55759;51.586;-1.758;2023-09-18T17:59:21;15.20;63.70
52245;DHT22;55759;51.586;-1.758;2023-09-18T18:01:49;15.10;66.00
52245;DHT22;55759;51.586;-1.758;2023-09-18T18:04:17;15.00;66.00
52245;DHT22;55759;51.586;-1.758;2023-09-18T18:06:51;14.90;65.70
52245;DHT22;55759;51.586;-1.758;2023-09-18T18:09:16;14.80;66.80
52245;DHT22;55759;51.586;-1.758;2023-09-18T18:11:45;14.70;66.90
52245;DHT22;55759;51.586;-1.758;2023-09-18T18:14:11;14.60;67.10
52245;DHT22;55759;51.586;-1.758;2023-09-18T18:16:36;14.50;68.60
52245;DHT22;55759;51.586;-1.758;2023-09-18T18:19:02;14.40;69.40
52245;DHT22;55759;51.586;-1.758;2023-09-18T18:21:29;14.30;70.00
52245;DHT22;55759;51.586;-1.758;2023-09-18T18:23:56;14.20;70.60
52245;DHT22;55759;51.586;-1.758;2023-09-18T18:26:22;14.10;72.30
52245;DHT22;55759;51.586;-1.758;2023-09-18T18:28:52;14.00;71.70
52245;DHT22;55759;51.586;-1.758;2023-09-18T18:31:23;14.00;72.50
52245;DHT22;55759;51.586;-1.758;2023-09-18T18:33:52;13.90;71.90
52245;DHT22;55759;51.586;-1.758;2023-09-18T18:36:17;13.80;72.20
52245;DHT22;55759;51.586;-1.758;2023-09-18T18:38:43;13.90;73.20
52245;DHT22;55759;51.586;-1.758;2023-09-18T18:41:08;14.00;73.80
52245;DHT22;55759;51.586;-1.758;2023-09-18T18:43:34;14.10;74.20
52245;DHT22;55759;51.586;-1.758;2023-09-18T18:46:00;14.20;74.60
52245;DHT22;55759;51.586;-1.758;2023-09-18T18:48:26;14.20;72.90
52245;DHT22;55759;51.586;-1.758;2023-09-18T18:50:52;13.90;75.60
52245;DHT22;55759;51.586;-1.758;2023-09-18T18:53:27;13.60;77.50
52245;DHT22;55759;51.586;-1.758;2023-09-18T18:55:55;13.30;80.00
52245;DHT22;55759;51.586;-1.758;2023-09-18T18:58:22;13.10;82.20
52245;DHT22;55759;51.586;-1.758;2023-09-18T19:00:47;12.80;83.70
52245;DHT22;55759;51.586;-1.758;2023-09-18T19:03:15;12.70;84.60
52245;DHT22;55759;51.586;-1.758;2023-09-18T19:05:40;12.50;85.60
52245;DHT22;55759;51.586;-1.758;2023-09-18T19:08:07;12.40;85.90
52245;DHT22;55759;51.586;-1.758;2023-09-18T19:10:32;12.30;86.40
52245;DHT22;55759;51.586;-1.758;2023-09-18T19:12:58;12.20;86.80
52245;DHT22;55759;51.586;-1.758;2023-09-18T19:15:24;12.30;86.70
52245;DHT22;55759;51.586;-1.758;2023-09-18T19:17:52;12.30;87.00
52245;DHT22;55759;51.586;-1.758;2023-09-18T19:20:18;12.30;87.20
52245;DHT22;55759;51.586;-1.758;2023-09-18T19:22:43;12.30;87.30
52245;DHT22;55759;51.586;-1.758;2023-09-18T19:25:09;12.40;87.50
52245;DHT22;55759;51.586;-1.758;2023-09-18T19:27:35;12.40;87.60
52245;DHT22;55759;51.586;-1.758;2023-09-18T19:30:04;12.40;87.70
52245;DHT22;55759;51.586;-1.758;2023-09-18T19:32:36;12.50;87.90
52245;DHT22;55759;51.586;-1.758;2023-09-18T19:35:02;12.50;87.90
52245;DHT22;55759;51.586;-1.758;2023-09-18T19:37:29;12.60;87.80
52245;DHT22;55759;51.586;-1.758;2023-09-18T19:39:54;12.50;87.50
52245;DHT22;55759;51.586;-1.758;2023-09-18T19:42:20;12.50;87.70
52245;DHT22;55759;51.586;-1.758;2023-09-18T19:44:46;12.60;87.80
52245;DHT22;55759;51.586;-1.758;2023-09-18T19:47:11;12.60;87.70
52245;DHT22;55759;51.586;-1.758;2023-09-18T19:49:40;12.70;87.30
52245;DHT22;55759;51.586;-1.758;2023-09-18T19:52:06;12.70;87.10
52245;DHT22;55759;51.586;-1.758;2023-09-18T19:54:32;12.80;86.80
52245;DHT22;55759;51.586;-1.758;2023-09-18T19:56:57;12.80;87.00
52245;DHT22;55759;51.586;-1.758;2023-09-18T19:59:23;12.80;87.30
52245;DHT22;55759;51.586;-1.758;2023-09-18T20:01:51;12.80;87.70
52245;DHT22;55759;51.586;-1.758;2023-09-18T20:04:16;12.70;88.00
52245;DHT22;55759;51.586;-1.758;2023-09-18T20:06:51;12.60;88.10
52245;DHT22;55759;51.586;-1.758;2023-09-18T20:09:19;12.50;88.50
52245;DHT22;55759;51.586;-1.758;2023-09-18T20:11:44;12.50;88.90
52245;DHT22;55759;51.586;-1.758;2023-09-18T20:14:13;12.50;89.10
52245;DHT22;55759;51.586;-1.758;2023-09-18T20:16:38;12.50;89.10
52245;DHT22;55759;51.586;-1.758;2023-09-18T20:19:04;12.50;89.40
52245;DHT22;55759;51.586;-1.758;2023-09-18T20:21:31;12.50;89.40
52245;DHT22;55759;51.586;-1.758;2023-09-18T20:24:00;12.60;89.30
52245;DHT22;55759;51.586;-1.758;2023-09-18T20:26:26;12.50;89.20
52245;DHT22;55759;51.586;-1.758;2023-09-18T20:28:51;12.40;88.20
52245;DHT22;55759;51.586;-1.758;2023-09-18T20:31:17;12.40;88.20
52245;DHT22;55759;51.586;-1.758;2023-09-18T20:33:43;12.30;87.90
52245;DHT22;55759;51.586;-1.758;2023-09-18T20:36:11;12.30;87.90
52245;DHT22;55759;51.586;-1.758;2023-09-18T20:38:36;12.30;88.00
52245;DHT22;55759;51.586;-1.758;2023-09-18T20:41:03;12.30;88.10
52245;DHT22;55759;51.586;-1.758;2023-09-18T20:43:29;12.20;88.20
52245;DHT22;55759;51.586;-1.758;2023-09-18T20:45:56;12.10;88.40
52245;DHT22;55759;51.586;-1.758;2023-09-18T20:48:22;12.10;88.30
52245;DHT22;55759;51.586;-1.758;2023-09-18T20:50:47;12.10;88.20
52245;DHT22;55759;51.586;-1.758;2023-09-18T20:53:13;12.10;88.30
52245;DHT22;55759;51.586;-1.758;2023-09-18T20:55:39;12.10;88.20
52245;DHT22;55759;51.586;-1.758;2023-09-18T20:58:05;12.10;88.30
52245;DHT22;55759;51.586;-1.758;2023-09-18T21:00:31;12.10;88.60
52245;DHT22;55759;51.586;-1.758;2023-09-18T21:02:57;12.20;88.80
52245;DHT22;55759;51.586;-1.758;2023-09-18T21:05:24;12.20;89.00
52245;DHT22;55759;51.586;-1.758;2023-09-18T21:07:50;12.30;89.20
52245;DHT22;55759;51.586;-1.758;2023-09-18T21:10:16;12.20;89.30
52245;DHT22;55759;51.586;-1.758;2023-09-18T21:12:41;12.30;89.50
52245;DHT22;55759;51.586;-1.758;2023-09-18T21:15:07;12.30;89.30
52245;DHT22;55759;51.586;-1.758;2023-09-18T21:17:33;12.30;89.30
52245;DHT22;55759;51.586;-1.758;2023-09-18T21:19:59;12.30;89.30
52245;DHT22;55759;51.586;-1.758;2023-09-18T21:22:24;12.30;89.20
52245;DHT22;55759;51.586;-1.758;2023-09-18T21:24:50;12.30;89.40
52245;DHT22;55759;51.586;-1.758;2023-09-18T21:27:16;12.30;89.50
52245;DHT22;55759;51.586;-1.758;2023-09-18T21:29:42;12.30;89.40
52245;DHT22;55759;51.586;-1.758;2023-09-18T21:32:07;12.40;89.70
52245;DHT22;55759;51.586;-1.758;2023-09-18T21:34:35;12.30;89.70
52245;DHT22;55759;51.586;-1.758;2023-09-18T21:37:01;12.30;89.70
52245;DHT22;55759;51.586;-1.758;2023-09-18T21:39:27;12.30;89.70
52245;DHT22;55759;51.586;-1.758;2023-09-18T21:41:52;12.30;89.70
52245;DHT22;55759;51.586;-1.758;2023-09-18T21:44:18;12.30;89.70
52245;DHT22;55759;51.586;-1.758;2023-09-18T21:46:43;12.30;89.80
52245;DHT22;55759;51.586;-1.758;2023-09-18T21:49:09;12.30;89.90
52245;DHT22;55759;51.586;-1.758;2023-09-18T21:51:35;12.20;90.10
52245;DHT22;55759;51.586;-1.758;2023-09-18T21:54:07;12.20;90.30
52245;DHT22;55759;51.586;-1.758;2023-09-18T21:56:33;12.30;90.30
52245;DHT22;55759;51.586;-1.758;2023-09-18T21:58:59;12.30;90.40
52245;DHT22;55759;51.586;-1.758;2023-09-18T22:01:25;12.40;90.40
52245;DHT22;55759;51.586;-1.758;2023-09-18T22:03:51;12.40;90.30
52245;DHT22;55759;51.586;-1.758;2023-09-18T22:06:20;12.40;90.40
52245;DHT22;55759;51.586;-1.758;2023-09-18T22:08:46;12.50;90.20
52245;DHT22;55759;51.586;-1.758;2023-09-18T22:11:11;12.50;90.20
52245;DHT22;55759;51.586;-1.758;2023-09-18T22:13:37;12.50;90.00
52245;DHT22;55759;51.586;-1.758;2023-09-18T22:16:03;12.50;90.00
52245;DHT22;55759;51.586;-1.758;2023-09-18T22:18:29;12.50;89.90
52245;DHT22;55759;51.586;-1.758;2023-09-18T22:20:55;12.50;90.10
52245;DHT22;55759;51.586;-1.758;2023-09-18T22:23:22;12.60;90.00
52245;DHT22;55759;51.586;-1.758;2023-09-18T22:25:49;12.60;89.80
52245;DHT22;55759;51.586;-1.758;2023-09-18T22:28:15;12.60;89.80
52245;DHT22;55759;51.586;-1.758;2023-09-18T22:30:42;12.60;89.70
52245;DHT22;55759;51.586;-1.758;2023-09-18T22:33:09;12.60;89.60
52245;DHT22;55759;51.586;-1.758;2023-09-18T22:35:37;12.50;89.50
52245;DHT22;55759;51.586;-1.758;2023-09-18T22:56:21;12.30;90.10
52245;DHT22;55759;51.586;-1.758;2023-09-18T22:58:51;12.30;90.20
52245;DHT22;55759;51.586;-1.758;2023-09-18T23:01:17;12.30;90.40
52245;DHT22;55759;51.586;-1.758;2023-09-18T23:03:42;12.30;90.30
52245;DHT22;55759;51.586;-1.758;2023-09-18T23:06:11;12.30;90.40
52245;DHT22;55759;51.586;-1.758;2023-09-18T23:08:37;12.30;90.40
52245;DHT22;55759;51.586;-1.758;2023-09-18T23:11:06;12.40;90.40
52245;DHT22;55759;51.586;-1.758;2023-09-18T23:13:32;12.40;90.30
52245;DHT22;55759;51.586;-1.758;2023-09-18T23:16:02;12.40;90.40
52245;DHT22;55759;51.586;-1.758;2023-09-18T23:18:28;12.40;90.50
52245;DHT22;55759;51.586;-1.758;2023-09-18T23:20:56;12.40;90.40
52245;DHT22;55759;51.586;-1.758;2023-09-18T23:23:22;12.40;90.40
52245;DHT22;55759;51.586;-1.758;2023-09-18T23:25:53;12.40;90.50
52245;DHT22;55759;51.586;-1.758;2023-09-18T23:28:18;12.40;90.30
52245;DHT22;55759;51.586;-1.758;2023-09-18T23:30:45;12.40;90.10
52245;DHT22;55759;51.586;-1.758;2023-09-18T23:33:11;12.30;90.10
52245;DHT22;55759;51.586;-1.758;2023-09-18T23:35:36;12.30;90.10
52245;DHT22;55759;51.586;-1.758;2023-09-18T23:38:06;12.30;90.00
52245;DHT22;55759;51.586;-1.758;2023-09-18T23:40:33;12.20;90.00
52245;DHT22;55759;51.586;-1.758;2023-09-18T23:43:15;12.20;90.20
52245;DHT22;55759;51.586;-1.758;2023-09-18T23:45:41;12.20;90.20
52245;DHT22;55759;51.586;-1.758;2023-09-18T23:48:10;12.20;90.00
52245;DHT22;55759;51.586;-1.758;2023-09-18T23:50:40;12.20;90.10
52245;DHT22;55759;51.586;-1.758;2023-09-18T23:53:07;12.20;90.10
52245;DHT22;55759;51.586;-1.758;2023-09-18T23:55:47;12.20;90.10
52245;DHT22;55759;51.586;-1.758;2023-09-18T23:58:13;12.20;90.00
